Time;durP1;ratioP1;P1;durP2;ratioP2;P2;SDS_P1;SDS_P2;PMS_P1;PMS_P2;Temp;Humidity;BMP_temperature;BMP_pressure;BME280_temperature;BME280_humidity;BME280_pressure;Samples;Min_cycle;Max_cycle;Signal;HPM_P1;HPM_P2
2023/10/06 00:02:37;;;;;;;4.82;0.60;;;;;;;16.82;88.60;101894.72;7356702;19;20021;-65
2023/10/06 00:05:03;;;;;;;6.53;0.80;;;;;;;16.81;88.87;101901.03;7356946;19;20672;-66
2023/10/06 00:07:31;;;;;;;6.78;0.55;;;;;;;16.81;89.30;101897.56;7336713;19;20014;-65
2023/10/06 00:09:59;;;;;;;5.45;0.68;;;;;;;16.80;88.53;101896.72;7351113;19;20693;-67
2023/10/06 00:12:26;;;;;;;11.85;1.00;;;;;;;16.79;88.66;101895.06;7350396;19;20075;-66
2023/10/06 00:14:55;;;;;;;6.10;0.60;;;;;;;16.79;88.80;101897.72;7351869;19;20771;-66
2023/10/06 00:17:28;;;;;;;3.92;0.50;;;;;;;16.81;89.16;101895.72;7352395;19;20023;-66
2023/10/06 00:19:56;;;;;;;4.43;0.60;;;;;;;16.79;88.83;101900.38;7354391;19;20130;-65
2023/10/06 00:22:26;;;;;;;6.88;0.60;;;;;;;16.77;88.21;101898.88;7351729;19;20017;-65
2023/10/06 00:24:59;;;;;;;5.30;0.60;;;;;;;16.72;88.31;101888.75;7355573;19;20019;-66
2023/10/06 00:27:29;;;;;;;4.28;0.60;;;;;;;16.69;88.76;101889.09;7353637;19;20021;-66
2023/10/06 00:29:57;;;;;;;4.55;0.80;;;;;;;16.68;89.59;101893.56;7351916;19;20049;-66
2023/10/06 00:32:27;;;;;;;5.93;0.50;;;;;;;16.68;89.86;101882.94;7353250;19;20098;-65
2023/10/06 00:35:17;;;;;;;4.97;0.88;;;;;;;16.68;89.13;101882.94;7354332;19;20011;-67
2023/10/06 00:37:44;;;;;;;7.60;0.75;;;;;;;16.71;89.21;101888.94;7360822;19;20111;-65
2023/10/06 00:40:19;;;;;;;5.97;0.77;;;;;;;16.66;89.70;101887.56;7361954;19;20986;-65
2023/10/06 00:42:51;;;;;;;5.55;0.52;;;;;;;16.71;89.99;101886.28;7356315;19;20059;-65
2023/10/06 00:45:18;;;;;;;3.38;0.50;;;;;;;16.72;89.53;101886.09;7360475;19;20106;-67
2023/10/06 00:47:45;;;;;;;3.35;0.63;;;;;;;16.70;89.72;101885.44;7358968;19;20085;-67
2023/10/06 00:50:13;;;;;;;8.00;0.70;;;;;;;16.70;89.02;101890.75;7360204;19;21795;-67
2023/10/06 00:52:40;;;;;;;4.63;0.55;;;;;;;16.71;88.83;101895.03;7356444;19;20348;-65
2023/10/06 00:55:11;;;;;;;2.20;0.43;;;;;;;16.73;89.59;101897.53;7359786;19;20021;-65
2023/10/06 00:57:40;;;;;;;8.27;0.57;;;;;;;16.73;90.08;101890.41;7359062;19;20577;-66
2023/10/06 01:00:21;;;;;;;6.75;0.57;;;;;;;16.72;89.13;101894.06;7340612;19;20021;-65
2023/10/06 01:02:49;;;;;;;8.18;0.75;;;;;;;16.73;89.10;101889.56;7361236;19;20529;-66
2023/10/06 01:05:21;;;;;;;5.65;0.70;;;;;;;16.73;88.89;101898.38;7360196;19;20380;-66
2023/10/06 01:07:49;;;;;;;4.53;1.60;;;;;;;16.73;88.80;101893.06;7361079;19;20014;-65
2023/10/06 01:10:22;;;;;;;5.20;0.70;;;;;;;16.76;90.88;101886.59;7358721;19;20044;-65
2023/10/06 01:12:52;;;;;;;5.50;0.63;;;;;;;16.77;90.42;101890.91;7348234;19;20120;-66
2023/10/06 01:15:20;;;;;;;6.00;0.60;;;;;;;16.77;89.40;101896.22;7357966;19;20018;-66
2023/10/06 01:17:48;;;;;;;7.05;0.63;;;;;;;16.79;88.99;101888.91;7360503;19;20014;-67
2023/10/06 01:20:33;;;;;;;8.20;0.60;;;;;;;16.79;89.04;101895.06;7359527;19;20035;-66
2023/10/06 01:23:01;;;;;;;5.35;0.60;;;;;;;16.80;89.56;101893.25;7358885;19;20377;-65
2023/10/06 01:25:34;;;;;;;6.45;0.70;;;;;;;16.80;89.71;101888.75;7339966;19;20542;-66
2023/10/06 01:28:06;;;;;;;3.63;0.50;;;;;;;16.80;89.00;101890.59;7357328;19;20103;-66
2023/10/06 01:30:33;;;;;;;5.60;0.60;;;;;;;16.80;89.03;101891.41;7356088;19;20082;-64
2023/10/06 01:33:00;;;;;;;5.03;0.60;;;;;;;16.80;88.86;101879.94;7357918;19;20037;-65
2023/10/06 01:35:33;;;;;;;8.07;0.60;;;;;;;16.83;89.47;101883.09;7360773;19;20029;-66
2023/10/06 01:38:00;;;;;;;4.35;0.50;;;;;;;16.77;88.73;101874.94;7355930;19;20014;-64
2023/10/06 01:42:57;;;;;;;5.78;0.60;;;;;;;16.74;89.07;101875.28;7356019;19;20020;-66
2023/10/06 01:45:24;;;;;;;5.75;0.55;;;;;;;16.74;88.98;101873.47;7359130;19;20033;-66
2023/10/06 01:48:14;;;;;;;8.68;0.90;;;;;;;16.76;88.86;101875.97;7357926;19;20078;-67
2023/10/06 01:50:42;;;;;;;8.73;0.50;;;;;;;16.77;89.09;101862.50;7358060;19;20096;-65
2023/10/06 01:53:11;;;;;;;3.33;0.52;;;;;;;16.73;88.85;101865.66;7336699;19;20023;-64
2023/10/06 01:55:38;;;;;;;4.80;1.55;;;;;;;16.68;88.78;101871.47;7356440;19;20002;-66
2023/10/06 01:58:07;;;;;;;8.05;0.55;;;;;;;16.66;89.30;101858.34;7355801;19;20037;-66
2023/10/06 02:00:36;;;;;;;5.70;0.95;;;;;;;16.69;89.33;101870.47;7355584;19;20094;-65
2023/10/06 02:03:10;;;;;;;9.90;1.02;;;;;;;16.73;90.72;101863.00;7357462;19;21002;-66
2023/10/06 02:05:40;;;;;;;6.00;0.98;;;;;;;16.72;89.95;101863.97;7361395;19;20011;-66
2023/10/06 02:08:09;;;;;;;4.97;0.60;;;;;;;16.70;89.26;101858.84;7359914;19;20491;-65
2023/10/06 02:10:37;;;;;;;6.53;0.68;;;;;;;16.65;89.62;101862.03;7358508;19;20673;-66
2023/10/06 02:13:07;;;;;;;5.00;0.50;;;;;;;16.63;89.55;101860.50;7349454;19;20018;-67
2023/10/06 02:15:42;;;;;;;4.93;0.60;;;;;;;16.63;90.05;101861.34;7357240;19;20026;-66
2023/10/06 02:18:12;;;;;;;3.75;0.50;;;;;;;16.64;90.88;101857.69;7354305;19;20033;-67
2023/10/06 02:20:41;;;;;;;7.30;0.80;;;;;;;16.64;90.52;101864.84;7352395;19;20013;-67
2023/10/06 02:23:08;;;;;;;7.57;1.52;;;;;;;16.64;90.31;101860.34;7356033;19;20011;-68
2023/10/06 02:25:36;;;;;;;8.20;0.70;;;;;;;16.64;90.19;101859.53;7359187;19;20010;-67
2023/10/06 02:28:14;;;;;;;6.35;0.50;;;;;;;16.61;89.68;101854.50;7353761;19;21381;-67
2023/10/06 02:30:44;;;;;;;7.88;0.60;;;;;;;16.56;89.92;101846.19;7356725;19;20060;-67
2023/10/06 02:33:11;;;;;;;3.03;0.60;;;;;;;16.55;89.99;101853.34;7357787;19;20347;-67
2023/10/06 02:35:46;;;;;;;4.50;0.60;;;;;;;16.55;90.36;101855.19;7356224;19;20775;-67
2023/10/06 02:38:13;;;;;;;6.93;0.60;;;;;;;16.54;90.11;101843.72;7354890;19;20599;-68
2023/10/06 02:40:47;;;;;;;3.75;0.50;;;;;;;16.52;90.89;101845.69;7358776;19;20538;-68
2023/10/06 02:43:20;;;;;;;8.93;0.70;;;;;;;16.53;91.01;101839.38;7342456;19;20014;-67
2023/10/06 02:45:48;;;;;;;8.18;1.10;;;;;;;16.56;91.64;101838.22;7354653;19;20014;-66
2023/10/06 02:48:17;;;;;;;4.38;0.93;;;;;;;16.63;90.71;101831.28;7355785;19;20017;-69
2023/10/06 02:50:49;;;;;;;6.30;0.50;;;;;;;16.56;90.45;101828.41;7354790;19;20015;-66
2023/10/06 02:53:20;;;;;;;5.35;0.65;;;;;;;16.52;90.49;101826.25;7353347;19;20035;-66
2023/10/06 02:55:55;;;;;;;6.25;0.95;;;;;;;16.49;90.55;101832.75;7353959;19;22061;-67
2023/10/06 02:58:30;;;;;;;8.65;0.80;;;;;;;16.50;90.98;101825.63;7355984;19;20044;-67
2023/10/06 03:00:57;;;;;;;5.65;0.60;;;;;;;16.49;91.43;101816.81;7355201;19;20750;-67
2023/10/06 03:03:29;;;;;;;6.55;0.60;;;;;;;16.54;91.53;101824.28;7356050;19;20018;-66
2023/10/06 03:05:56;;;;;;;5.78;0.50;;;;;;;16.55;91.18;101824.13;7356291;19;20025;-67
2023/10/06 03:08:30;;;;;;;7.60;0.68;;;;;;;16.54;91.16;101830.44;7355544;19;20432;-67
2023/10/06 03:10:57;;;;;;;4.80;0.60;;;;;;;16.54;91.18;101826.94;7339646;19;20027;-67
2023/10/06 03:13:35;;;;;;;5.38;1.23;;;;;;;16.51;91.32;101830.75;7350783;19;20026;-67
2023/10/06 03:16:10;;;;;;;6.68;1.00;;;;;;;16.50;91.92;101822.97;7351699;19;20021;-67
2023/10/06 03:18:39;;;;;;;5.18;0.50;;;;;;;16.46;91.34;101826.91;7354189;19;20145;-67
2023/10/06 03:23:44;;;;;;;5.68;0.57;;;;;;;16.48;91.97;101828.44;7355436;19;20220;-67
2023/10/06 03:26:33;;;;;;;7.40;1.45;;;;;;;16.47;91.85;101823.28;7356370;19;20046;-67
2023/10/06 03:29:11;;;;;;;7.20;1.20;;;;;;;16.49;91.74;101826.59;7352307;19;20590;-66
2023/10/06 03:31:44;;;;;;;6.53;0.60;;;;;;;16.47;91.98;101829.41;7355541;19;20499;-67
2023/10/06 03:34:16;;;;;;;4.35;0.98;;;;;;;16.50;92.53;101822.97;7354487;19;20553;-67
2023/10/06 03:36:47;;;;;;;5.95;0.60;;;;;;;16.53;92.22;101820.78;7332643;19;20761;-66
2023/10/06 03:39:28;;;;;;;5.30;0.60;;;;;;;16.51;92.12;101822.78;7353219;19;20052;-66
2023/10/06 03:42:00;;;;;;;5.07;0.50;;;;;;;16.53;92.13;101822.63;7354418;19;20030;-67
2023/10/06 03:44:30;;;;;;;5.22;0.55;;;;;;;16.54;91.84;101821.63;7348280;19;20030;-67
2023/10/06 03:47:01;;;;;;;3.35;0.50;;;;;;;16.58;92.10;101825.59;7357032;19;20046;-68
2023/10/06 03:49:33;;;;;;;4.85;0.50;;;;;;;16.57;91.17;101823.94;7351207;19;20022;-67
2023/10/06 03:52:01;;;;;;;;;;;;;;;16.54;91.67;101827.78;7353667;19;20025;-67
2023/10/06 03:54:29;;;;;;;5.22;0.60;;;;;;;16.50;92.17;101828.28;7352142;19;20494;-66
2023/10/06 03:56:57;;;;;;;5.88;0.70;;;;;;;16.51;92.46;101822.78;7349636;19;20026;-66
2023/10/06 03:59:24;;;;;;;5.22;0.60;;;;;;;16.52;92.62;101819.13;7350888;19;20878;-67
2023/10/06 04:01:51;;;;;;;3.92;0.50;;;;;;;16.54;92.06;101825.13;7342356;19;20018;-66
2023/10/06 04:04:22;;;;;;;6.28;0.80;;;;;;;16.54;92.49;101825.13;7348160;19;20015;-67
2023/10/06 04:06:50;;;;;;;6.35;0.50;;;;;;;16.52;92.57;101821.78;7362504;19;20130;-66
2023/10/06 04:09:27;;;;;;;4.68;0.60;;;;;;;16.49;92.37;101823.94;7363040;19;20596;-66
2023/10/06 04:11:56;;;;;;;4.82;0.50;;;;;;;16.50;93.04;101829.09;7359277;19;20064;-66
2023/10/06 04:14:27;;;;;;;4.45;0.60;;;;;;;16.52;92.88;101823.59;7355388;19;20092;-66
2023/10/06 04:16:54;;;;;;;4.78;0.50;;;;;;;16.51;92.94;101822.78;7359008;19;20014;-66
2023/10/06 04:19:22;;;;;;;4.75;0.60;;;;;;;16.56;92.97;101824.94;7359594;19;20010;-66
2023/10/06 04:21:49;;;;;;;4.60;0.57;;;;;;;16.62;93.96;101816.31;7361508;19;20011;-67
2023/10/06 04:24:16;;;;;;;8.60;0.68;;;;;;;16.61;93.23;101817.31;7362218;19;20081;-67
2023/10/06 04:26:43;;;;;;;8.18;0.88;;;;;;;16.57;92.53;101821.28;7362562;19;20022;-67
2023/10/06 04:29:13;;;;;;;6.05;0.52;;;;;;;16.55;92.73;101812.66;7336668;19;20082;-66
2023/10/06 04:31:40;;;;;;;10.25;0.60;;;;;;;16.54;92.51;101816.31;7359878;19;20014;-67
2023/10/06 04:34:07;;;;;;;5.28;0.47;;;;;;;16.51;92.60;101812.13;7360405;19;20567;-66
2023/10/06 04:36:37;;;;;;;4.03;1.02;;;;;;;16.51;93.17;101806.81;7362223;19;20023;-67
2023/10/06 04:39:09;;;;;;;6.88;0.85;;;;;;;16.54;93.31;101795.06;7361123;19;20014;-67
2023/10/06 04:41:37;;;;;;;10.00;0.90;;;;;;;16.57;93.44;101805.34;7359296;19;20086;-67
2023/10/06 04:44:16;;;;;;;6.00;0.70;;;;;;;16.58;92.82;101807.00;7356644;19;20272;-68
2023/10/06 04:46:58;;;;;;;6.20;0.60;;;;;;;16.57;92.82;101805.34;7361177;19;20014;-68
2023/10/06 04:49:25;;;;;;;9.70;1.13;;;;;;;16.55;92.98;101802.88;7357142;19;20015;-67
2023/10/06 04:51:52;;;;;;;3.47;0.43;;;;;;;16.57;93.84;101800.84;7360320;19;20097;-67
2023/10/06 04:54:20;;;;;;;5.72;0.50;;;;;;;16.56;93.45;101796.53;7342085;19;20117;-66
2023/10/06 04:56:52;;;;;;;4.78;0.50;;;;;;;16.58;93.27;101799.03;7355006;19;20044;-67
2023/10/06 04:59:19;;;;;;;8.82;0.60;;;;;;;16.57;93.07;101794.69;7356903;19;20047;-68
2023/10/06 05:01:46;;;;;;;6.40;0.60;;;;;;;16.60;93.11;101803.22;7359296;19;20018;-67
2023/10/06 05:04:13;;;;;;;4.63;0.70;;;;;;;16.58;93.26;101805.22;7360806;19;20605;-67
2023/10/06 05:06:40;;;;;;;3.55;0.82;;;;;;;16.63;93.83;101799.38;7361482;19;20114;-66
2023/10/06 05:09:09;;;;;;;4.93;0.50;;;;;;;16.63;93.48;101807.34;7360459;19;20170;-66
2023/10/06 05:11:38;;;;;;;5.90;0.50;;;;;;;16.64;93.25;101804.53;7359892;19;20014;-67
2023/10/06 05:14:08;;;;;;;3.97;0.60;;;;;;;16.63;93.07;101800.22;7354461;19;20018;-67
2023/10/06 05:16:36;;;;;;;3.28;0.60;;;;;;;16.65;92.98;101800.06;7356194;19;20663;-66
2023/10/06 05:19:03;;;;;;;3.20;0.75;;;;;;;16.62;93.01;101811.84;7357699;19;20446;-66
2023/10/06 05:21:31;;;;;;;8.20;1.10;;;;;;;16.64;93.96;101807.19;7340719;19;20571;-66
2023/10/06 05:23:59;;;;;;;4.90;0.57;;;;;;;16.61;93.61;101809.34;7355410;19;20023;-68
2023/10/06 05:26:28;;;;;;;8.38;0.80;;;;;;;16.59;93.61;101809.53;7358671;19;20086;-67
2023/10/06 05:28:55;;;;;;;5.45;0.80;;;;;;;16.65;93.75;101800.88;7352717;19;20528;-66
2023/10/06 05:31:22;;;;;;;9.65;0.63;;;;;;;16.65;93.65;101805.38;7358246;19;20035;-67
2023/10/06 05:33:51;;;;;;;4.93;0.60;;;;;;;16.58;93.30;101810.53;7356774;19;20692;-67
2023/10/06 05:36:18;;;;;;;9.65;0.80;;;;;;;16.54;93.64;101808.34;7359503;19;20135;-67
2023/10/06 05:38:47;;;;;;;8.23;0.70;;;;;;;16.55;94.69;101810.84;7356398;19;20402;-67
2023/10/06 05:41:15;;;;;;;6.15;0.55;;;;;;;16.54;94.68;101803.03;7360891;19;20011;-66
2023/10/06 05:43:43;;;;;;;4.80;0.60;;;;;;;16.55;94.75;101807.34;7359887;19;20014;-67
2023/10/06 05:46:11;;;;;;;7.40;0.70;;;;;;;16.57;94.38;101806.16;7360232;19;20490;-67
2023/10/06 05:48:39;;;;;;;10.25;0.68;;;;;;;16.55;94.45;101808.19;7356528;19;20022;-67
2023/10/06 05:51:09;;;;;;;4.35;0.98;;;;;;;16.53;95.03;101798.69;7359494;19;20694;-67
2023/10/06 05:53:43;;;;;;;6.32;0.68;;;;;;;16.55;95.52;101800.22;7358238;19;20526;-68
2023/10/06 05:56:11;;;;;;;7.72;0.80;;;;;;;16.56;95.30;101801.84;7358011;19;20022;-66
2023/10/06 05:58:40;;;;;;;5.82;0.75;;;;;;;16.57;95.22;101802.69;7356295;19;20368;-67
2023/10/06 06:01:13;;;;;;;6.47;0.80;;;;;;;16.57;95.55;101800.84;7359452;19;20479;-67
2023/10/06 06:03:45;;;;;;;5.32;0.77;;;;;;;16.55;95.30;101791.41;7355102;19;20014;-65
2023/10/06 06:06:22;;;;;;;8.05;0.88;;;;;;;16.58;95.97;101793.72;7360444;19;20054;-67
2023/10/06 06:08:53;;;;;;;6.93;0.75;;;;;;;16.63;96.06;101797.56;7354658;19;20522;-67
2023/10/06 06:11:20;;;;;;;7.28;0.60;;;;;;;16.65;95.51;101803.56;7358743;19;20015;-67
2023/10/06 06:13:47;;;;;;;5.20;0.70;;;;;;;16.68;95.58;101797.88;7355770;19;20040;-66
2023/10/06 06:16:30;;;;;;;6.32;0.70;;;;;;;16.68;95.33;101808.50;7353485;19;20486;-68
2023/10/06 06:18:58;;;;;;;6.85;1.08;;;;;;;16.68;94.96;101807.69;7329978;19;20490;-67
2023/10/06 06:21:25;;;;;;;8.48;1.90;;;;;;;16.67;95.31;101811.34;7358595;19;21821;-67
2023/10/06 06:23:55;;;;;;;5.45;0.77;;;;;;;16.71;95.95;101823.28;7357835;19;20026;-67
2023/10/06 06:26:23;;;;;;;9.88;0.90;;;;;;;16.71;95.60;101822.47;7355980;19;20128;-67
2023/10/06 06:28:52;;;;;;;7.78;1.08;;;;;;;16.72;95.35;101818.78;7352177;19;20010;-66
2023/10/06 06:31:20;;;;;;;8.10;0.90;;;;;;;16.70;95.05;101828.78;7356301;19;20017;-69
2023/10/06 06:33:48;;;;;;;7.25;1.55;;;;;;;16.68;95.33;101834.25;7356005;19;20038;-67
2023/10/06 06:36:18;;;;;;;6.50;0.75;;;;;;;16.70;96.36;101820.81;7354444;19;21782;-67
2023/10/06 06:38:46;;;;;;;5.38;0.60;;;;;;;16.71;96.47;101833.91;7353578;19;20032;-66
2023/10/06 06:41:13;;;;;;;9.02;0.93;;;;;;;16.72;96.15;101837.41;7355471;19;20075;-66
2023/10/06 06:43:45;;;;;;;4.10;0.88;;;;;;;16.76;95.89;101833.44;7336881;19;20007;-66
2023/10/06 06:46:13;;;;;;;8.98;0.70;;;;;;;16.78;95.79;101834.09;7355463;19;20701;-67
2023/10/06 06:48:43;;;;;;;7.68;0.70;;;;;;;16.81;95.55;101839.88;7352322;19;20467;-67
2023/10/06 06:51:11;;;;;;;8.05;0.80;;;;;;;16.83;95.42;101847.69;7355159;19;20006;-66
2023/10/06 06:53:41;;;;;;;6.32;0.60;;;;;;;16.86;95.81;101842.06;7358438;19;20019;-67
2023/10/06 06:56:10;;;;;;;5.65;1.60;;;;;;;16.80;95.50;101840.91;7357103;19;20435;-67
2023/10/06 06:58:38;;;;;;;9.60;0.90;;;;;;;16.78;95.25;101840.22;7349770;19;20011;-68
2023/10/06 07:01:14;;;;;;;6.53;1.70;;;;;;;16.82;96.58;101836.22;7354841;19;20665;-68
2023/10/06 07:03:42;;;;;;;4.97;1.00;;;;;;;16.87;96.75;101841.03;7354581;19;20034;-68
2023/10/06 07:06:16;;;;;;;3.30;0.82;;;;;;;16.88;96.21;101842.69;7356600;19;20007;-67
2023/10/06 07:08:47;;;;;;;4.20;0.80;;;;;;;16.89;95.64;101839.88;7358709;19;20077;-67
2023/10/06 07:11:15;;;;;;;6.13;0.90;;;;;;;16.94;96.28;101850.00;7341665;19;20048;-67
2023/10/06 07:13:44;;;;;;;7.95;0.85;;;;;;;16.99;95.94;101858.31;7352241;19;20013;-67
2023/10/06 07:16:14;;;;;;;7.80;0.93;;;;;;;16.97;95.30;101852.31;7354844;19;20335;-67
2023/10/06 07:18:41;;;;;;;7.75;0.90;;;;;;;16.92;95.04;101863.47;7350365;19;20574;-68
2023/10/06 07:21:10;;;;;;;10.55;1.85;;;;;;;16.94;95.46;101853.50;7353688;19;20026;-67
2023/10/06 07:23:38;;;;;;;9.25;1.13;;;;;;;16.91;95.50;101869.81;7354998;19;20491;-66
2023/10/06 07:26:11;;;;;;;7.50;0.98;;;;;;;16.91;95.89;101875.13;7355753;19;20011;-67
2023/10/06 07:28:39;;;;;;;8.13;0.90;;;;;;;16.92;95.65;101865.28;7351525;19;20522;-67
2023/10/06 07:31:13;;;;;;;6.90;1.20;;;;;;;16.95;96.04;101875.59;7353777;19;20014;-66
2023/10/06 07:33:43;;;;;;;6.63;1.73;;;;;;;17.02;95.80;101884.56;7352429;19;21799;-67
2023/10/06 07:36:17;;;;;;;9.55;1.15;;;;;;;17.04;96.08;101882.56;7343897;19;22129;-67
2023/10/06 07:38:45;;;;;;;10.80;1.25;;;;;;;17.08;95.92;101886.53;7354640;19;20022;-67
2023/10/06 07:41:23;;;;;;;8.23;1.55;;;;;;;17.10;95.48;101877.41;7356675;19;20014;-68
2023/10/06 07:43:55;;;;;;;7.53;1.02;;;;;;;17.10;95.34;101879.25;7352561;19;20538;-68
2023/10/06 07:46:23;;;;;;;10.27;1.63;;;;;;;17.13;95.51;101886.03;7355573;19;20050;-72
2023/10/06 07:48:50;;;;;;;6.75;1.35;;;;;;;17.18;95.82;101897.84;7353328;19;20018;-66
2023/10/06 07:51:17;;;;;;;11.90;1.27;;;;;;;17.22;95.23;101883.19;7357577;19;20010;-67
2023/10/06 07:53:44;;;;;;;4.82;1.30;;;;;;;17.24;95.24;101891.00;7351409;19;20014;-68
2023/10/06 07:56:11;;;;;;;8.50;1.10;;;;;;;17.27;94.94;101890.69;7355474;19;20610;-66
2023/10/06 07:58:43;;;;;;;5.38;0.80;;;;;;;17.29;95.18;101900.13;7352101;19;20094;-68
2023/10/06 08:01:12;;;;;;;4.65;0.90;;;;;;;17.31;94.89;101892.00;7357743;19;20015;-68
2023/10/06 08:03:41;;;;;;;7.32;1.25;;;;;;;17.32;94.97;101896.31;7336949;19;20048;-67
2023/10/06 08:06:10;;;;;;;7.57;0.90;;;;;;;17.38;95.27;101899.09;7356904;19;20572;-67
2023/10/06 08:08:38;;;;;;;6.38;0.80;;;;;;;17.48;95.15;101905.06;7356021;19;20019;-67
2023/10/06 08:11:06;;;;;;;10.70;1.10;;;;;;;17.58;98.25;101904.88;7357252;19;20031;-68
2023/10/06 08:13:33;;;;;;;7.00;1.10;;;;;;;17.64;97.03;101901.56;7348996;19;20047;-67
2023/10/06 08:16:01;;;;;;;11.60;2.10;;;;;;;17.75;98.08;101892.34;7357132;19;20622;-67
2023/10/06 08:18:29;;;;;;;7.18;1.35;;;;;;;17.75;95.54;101890.53;7352278;19;20011;-66
2023/10/06 08:20:59;;;;;;;10.05;1.20;;;;;;;17.71;94.55;101896.38;7350664;19;20045;-67
2023/10/06 08:23:26;;;;;;;8.85;1.63;;;;;;;17.72;93.66;101906.88;7347014;19;20317;-65
2023/10/06 08:25:56;;;;;;;3.95;0.80;;;;;;;17.75;93.98;101900.34;7356744;19;20014;-67
2023/10/06 08:28:27;;;;;;;4.25;0.95;;;;;;;17.75;93.65;101897.69;7341732;19;20158;-66
2023/10/06 08:30:54;;;;;;;4.60;0.80;;;;;;;17.75;93.26;101901.19;7352890;19;20022;-65
2023/10/06 08:33:25;;;;;;;11.43;1.17;;;;;;;17.76;93.44;101894.84;7353702;19;20359;-66
2023/10/06 08:35:57;;;;;;;11.88;3.25;;;;;;;17.80;93.86;101906.81;7354681;19;20063;-66
2023/10/06 08:38:24;;;;;;;8.32;1.20;;;;;;;17.77;93.21;101896.53;7353412;19;20396;-67
2023/10/06 08:40:58;;;;;;;5.90;1.00;;;;;;;17.77;92.80;101901.00;7354128;19;20017;-68
2023/10/06 08:43:27;;;;;;;6.70;0.90;;;;;;;17.81;92.91;101912.97;7352119;19;20420;-67
2023/10/06 08:45:59;;;;;;;12.48;1.58;;;;;;;17.79;92.53;101909.66;7353012;19;20771;-68
2023/10/06 08:48:32;;;;;;;8.27;0.90;;;;;;;17.86;92.85;101900.81;7352579;19;20031;-68
2023/10/06 08:51:03;;;;;;;6.53;0.70;;;;;;;17.87;92.51;101906.97;7356153;19;20102;-68
2023/10/06 08:53:32;;;;;;;12.27;1.10;;;;;;;17.89;92.42;101912.94;7359490;19;20626;-67
2023/10/06 08:55:59;;;;;;;6.20;0.95;;;;;;;17.90;92.64;101914.59;7343388;19;20050;-68
2023/10/06 08:58:26;;;;;;;9.85;1.00;;;;;;;17.95;93.09;101902.41;7356530;19;20042;-68
2023/10/06 09:00:55;;;;;;;5.43;0.85;;;;;;;17.96;92.02;101900.59;7358125;19;20179;-66
2023/10/06 09:03:22;;;;;;;4.32;0.80;;;;;;;17.95;91.70;101917.56;7358981;19;20019;-65
2023/10/06 09:05:53;;;;;;;9.60;0.75;;;;;;;17.98;92.33;101900.41;7361764;19;20013;-66
2023/10/06 09:08:21;;;;;;;5.25;1.48;;;;;;;18.03;92.56;101901.53;7360668;19;20026;-67
2023/10/06 09:10:50;;;;;;;9.75;0.75;;;;;;;18.11;92.37;101903.31;7363446;19;20014;-66
2023/10/06 09:13:19;;;;;;;9.25;1.00;;;;;;;18.10;91.42;101907.00;7356898;19;20007;-67
2023/10/06 09:16:02;;;;;;;6.28;0.85;;;;;;;18.07;91.28;101902.03;7358369;19;20021;-67
2023/10/06 09:18:34;;;;;;;6.75;1.10;;;;;;;18.02;90.81;101907.88;7357730;19;20019;-67
2023/10/06 09:21:19;;;;;;;5.78;1.00;;;;;;;18.01;91.09;101902.72;7335967;19;20018;-66
2023/10/06 09:23:49;;;;;;;8.35;0.80;;;;;;;18.03;91.19;101914.84;7354227;19;20871;-67
2023/10/06 09:26:31;;;;;;;2.95;0.70;;;;;;;18.08;91.14;101915.16;7356938;19;20101;-68
2023/10/06 09:29:02;;;;;;;6.00;0.70;;;;;;;18.15;90.80;101913.47;7354421;19;20039;-67
2023/10/06 09:31:46;;;;;;;3.50;0.60;;;;;;;18.18;90.41;101899.81;7361662;19;20029;-67
2023/10/06 09:34:27;;;;;;;7.80;0.70;;;;;;;18.26;91.15;101910.41;7355186;19;20030;-68
2023/10/06 09:36:54;;;;;;;5.72;0.80;;;;;;;18.34;90.98;101906.84;7360914;19;20481;-70
2023/10/06 09:39:29;;;;;;;6.57;0.82;;;;;;;18.37;89.91;101906.50;7358389;19;20018;-67
2023/10/06 09:41:57;;;;;;;3.83;0.73;;;;;;;18.41;89.84;101902.47;7352587;19;20010;-67
2023/10/06 09:44:27;;;;;;;8.30;2.00;;;;;;;18.42;89.29;101904.13;7353476;19;20838;-67
2023/10/06 09:46:59;;;;;;;2.83;0.50;;;;;;;18.43;88.58;101913.78;7340452;19;20026;-66
2023/10/06 09:49:28;;;;;;;6.40;0.70;;;;;;;18.47;89.31;101911.59;7354112;19;20019;-67
2023/10/06 09:52:01;;;;;;;6.03;0.57;;;;;;;18.47;88.53;101917.75;7357238;19;20110;-67
2023/10/06 09:54:29;;;;;;;;;;;;;;;18.44;88.05;101911.97;7356919;19;20018;-68
2023/10/06 09:56:56;;;;;;;5.97;0.85;;;;;;;18.42;88.32;101919.28;7359189;19;20574;-67
2023/10/06 09:59:31;;;;;;;4.65;1.55;;;;;;;18.41;88.70;101918.47;7355856;19;20033;-66
2023/10/06 10:02:01;;;;;;;8.25;0.90;;;;;;;18.43;89.05;101920.97;7356975;19;20129;-67
2023/10/06 10:04:33;;;;;;;5.88;1.00;;;;;;;18.48;89.58;101911.44;7355893;19;20045;-66
2023/10/06 10:07:03;;;;;;;6.18;1.02;;;;;;;18.52;89.22;101918.06;7349419;19;20052;-68
2023/10/06 10:09:34;;;;;;;6.88;1.02;;;;;;;18.58;88.50;101922.72;7357332;19;20708;-67
2023/10/06 10:12:41;;;;;;;5.73;0.80;;;;;;;18.61;88.80;101921.50;7355279;19;20019;-67
2023/10/06 10:15:37;;;;;;;7.72;0.90;;;;;;;18.65;88.60;101914.81;7348318;19;20994;-68
2023/10/06 10:18:35;;;;;;;5.00;0.90;;;;;;;18.66;87.20;101932.47;7354213;19;20082;-67
2023/10/06 10:21:06;;;;;;;6.82;0.82;;;;;;;18.65;87.39;101928.13;7353309;19;20048;-67
2023/10/06 10:23:33;;;;;;;5.97;0.82;;;;;;;18.66;87.48;101929.81;7349711;19;20019;-68
2023/10/06 10:26:26;;;;;;;4.78;1.17;;;;;;;18.69;87.59;101927.59;7357870;19;20021;-67
2023/10/06 10:29:17;;;;;;;8.68;1.17;;;;;;;18.73;87.58;101922.75;7353000;19;20123;-67
2023/10/06 10:31:46;;;;;;;3.45;0.75;;;;;;;18.77;87.28;101927.56;7361429;19;20011;-68
2023/10/06 10:34:33;;;;;;;7.68;0.70;;;;;;;18.81;87.11;101930.69;7353661;19;20015;-71
2023/10/06 10:37:06;;;;;;;8.82;0.77;;;;;;;18.88;86.75;101931.63;7360410;19;20025;-66
2023/10/06 10:39:43;;;;;;;9.60;1.00;;;;;;;18.92;86.33;101922.25;7359897;19;20673;-67
2023/10/06 10:42:12;;;;;;;6.80;0.70;;;;;;;18.97;86.09;101922.53;7357629;19;20458;-67
2023/10/06 10:44:40;;;;;;;4.95;0.60;;;;;;;19.03;85.65;101921.00;7355698;19;20032;-66
2023/10/06 10:47:08;;;;;;;6.85;0.68;;;;;;;19.04;85.32;101918.16;7356424;19;20352;-66
2023/10/06 10:49:35;;;;;;;1.95;0.50;;;;;;;19.07;85.70;101923.13;7352687;19;20015;-67
2023/10/06 10:52:07;;;;;;;8.55;1.00;;;;;;;19.10;84.66;101919.25;7355860;19;20010;-66
2023/10/06 10:54:37;;;;;;;5.53;0.70;;;;;;;19.12;83.60;101914.56;7353902;19;20038;-67
2023/10/06 10:57:11;;;;;;;5.82;0.65;;;;;;;19.17;83.53;101914.84;7353667;19;20003;-67
2023/10/06 11:02:42;;;;;;;10.30;1.65;;;;;;;19.23;85.15;101922.13;7356777;19;20014;-66
2023/10/06 11:05:10;;;;;;;8.98;1.20;;;;;;;19.27;85.17;101920.75;7354940;19;20014;-67
2023/10/06 11:07:37;;;;;;;4.35;0.90;;;;;;;19.29;84.37;101918.75;7355082;19;20534;-67
2023/10/06 11:10:05;;;;;;;6.20;0.60;;;;;;;19.30;83.46;101916.91;7356898;19;20046;-67
2023/10/06 11:12:35;;;;;;;5.05;0.75;;;;;;;19.31;83.49;101914.03;7354187;19;20010;-67
2023/10/06 11:15:14;;;;;;;4.45;0.70;;;;;;;19.32;82.83;101912.19;7353541;19;20085;-66
2023/10/06 11:17:42;;;;;;;3.38;0.70;;;;;;;19.34;82.67;101915.50;7356385;19;20021;-67
2023/10/06 11:20:19;;;;;;;4.80;0.85;;;;;;;19.39;83.28;101918.47;7356359;19;20483;-67
2023/10/06 11:22:59;;;;;;;7.85;0.90;;;;;;;19.47;82.91;101913.88;7352547;19;20010;-67
2023/10/06 11:25:28;;;;;;;8.50;1.60;;;;;;;19.51;82.03;101925.00;7333471;19;20022;-68
2023/10/06 11:28:08;;;;;;;;;;;;;;;19.54;81.55;101920.16;7353439;19;20411;-67
2023/10/06 11:30:38;;;;;;;7.55;0.88;;;;;;;19.56;81.60;101925.28;7353055;19;20355;-66
2023/10/06 11:33:09;;;;;;;3.17;0.85;;;;;;;19.60;80.69;101916.75;7354141;19;20014;-66
2023/10/06 11:35:52;;;;;;;4.43;0.60;;;;;;;19.68;80.67;101917.66;7356634;19;20025;-68
2023/10/06 11:38:20;;;;;;;6.88;0.70;;;;;;;19.70;79.76;101913.78;7355621;19;20022;-69
2023/10/06 11:40:48;;;;;;;4.55;0.80;;;;;;;19.76;80.25;101909.56;7355327;19;20018;-67
2023/10/06 11:43:18;;;;;;;6.47;0.70;;;;;;;19.81;79.52;101915.16;7355869;19;20022;-67
2023/10/06 11:46:09;;;;;;;3.20;0.70;;;;;;;19.92;79.62;101906.66;7352411;19;20479;-68
2023/10/06 11:48:36;;;;;;;5.63;0.77;;;;;;;19.97;79.20;101904.25;7353866;19;20015;-67
2023/10/06 11:51:08;;;;;;;5.50;0.90;;;;;;;19.99;79.53;101908.41;7356839;19;20015;-67